Time;durP1;ratioP1;P1;durP2;ratioP2;P2;SDS_P1;SDS_P2;PMS_P1;PMS_P2;Temp;Humidity;BMP_temperature;BMP_pressure;BME280_temperature;BME280_humidity;BME280_pressure;Samples;Min_cycle;Max_cycle;Signal;HPM_P1;HPM_P2
2023/08/21 00:00:45;;;;;;;5.28;2.90;;;18.40;99.90;;;;;;5071932;28;20052;-63
2023/08/21 00:03:12;;;;;;;7.95;3.05;;;18.30;99.90;;;;;;5073043;28;20112;-63
2023/08/21 00:05:38;;;;;;;6.20;2.90;;;18.30;99.90;;;;;;5072392;28;20464;-64
2023/08/21 00:08:04;;;;;;;7.97;2.88;;;18.30;99.90;;;;;;5054603;28;20052;-63
2023/08/21 00:10:31;;;;;;;6.03;3.28;;;18.30;99.90;;;;;;5067227;28;20077;-63
2023/08/21 00:12:57;;;;;;;5.57;3.05;;;18.20;99.90;;;;;;5071746;28;20120;-64
2023/08/21 00:15:24;;;;;;;6.50;3.17;;;18.10;99.90;;;;;;5072204;28;20377;-64
2023/08/21 00:17:50;;;;;;;6.13;3.20;;;18.00;99.90;;;;;;5072306;28;20432;-63
2023/08/21 00:20:49;;;;;;;6.68;3.25;;;17.90;99.90;;;;;;5072119;28;20036;-63
2023/08/21 00:23:15;;;;;;;6.25;3.30;;;17.90;99.90;;;;;;5072712;28;20078;-64
2023/08/21 00:25:45;;;;;;;6.85;2.97;;;17.80;99.90;;;;;;5072543;28;20048;-63
2023/08/21 00:28:12;;;;;;;6.28;3.03;;;17.80;99.90;;;;;;5054712;28;20056;-63
2023/08/21 00:30:38;;;;;;;8.75;3.20;;;17.80;99.90;;;;;;5072093;28;20441;-63
2023/08/21 00:33:04;;;;;;;7.28;2.78;;;17.80;99.90;;;;;;5072813;28;20057;-63
2023/08/21 00:35:31;;;;;;;5.55;3.00;;;17.90;99.90;;;;;;5072176;28;20449;-64
2023/08/21 00:37:57;;;;;;;7.57;2.90;;;17.90;99.90;;;;;;5071577;28;20048;-63
2023/08/21 00:40:23;;;;;;;6.43;3.30;;;17.80;99.90;;;;;;5071615;28;20052;-63
2023/08/21 00:42:50;;;;;;;4.07;2.47;;;17.80;99.90;;;;;;5072736;28;20505;-63
2023/08/21 00:45:16;;;;;;;5.75;2.85;;;17.80;99.90;;;;;;5072054;28;20477;-63
2023/08/21 00:47:43;;;;;;;7.03;3.10;;;17.80;99.90;;;;;;5053971;28;20381;-63
2023/08/21 00:50:11;;;;;;;7.70;3.03;;;17.80;99.90;;;;;;5071323;28;20045;-63
2023/08/21 00:52:42;;;;;;;5.18;2.80;;;17.70;99.90;;;;;;5054930;28;20411;-63
2023/08/21 00:55:09;;;;;;;;;;;17.70;99.90;;;;;;5072397;28;20048;-63
2023/08/21 00:57:40;;;;;;;;;;;17.60;99.90;;;;;;5071725;28;19920;-63
2023/08/21 01:00:10;;;;;;;5.43;3.00;;;17.60;99.90;;;;;;5071625;28;19924;-63
2023/08/21 01:02:36;;;;;;;6.07;2.58;;;17.60;99.90;;;;;;5054614;28;20041;-63
2023/08/21 01:05:04;;;;;;;6.65;3.10;;;17.70;99.90;;;;;;5071873;28;20102;-64
2023/08/21 01:07:36;;;;;;;5.40;3.30;;;17.70;99.90;;;;;;5071497;28;20461;-64
2023/08/21 01:10:18;;;;;;;4.72;2.95;;;17.70;99.90;;;;;;5071464;28;20331;-63
2023/08/21 01:12:56;;;;;;;7.90;3.53;;;17.70;99.90;;;;;;5053950;28;20376;-63
2023/08/21 01:15:24;;;;;;;4.82;2.78;;;17.70;99.90;;;;;;5054132;28;20049;-64
2023/08/21 01:17:51;;;;;;;5.00;2.78;;;17.70;99.90;;;;;;5071454;28;20056;-64
2023/08/21 01:20:18;;;;;;;5.28;2.80;;;17.70;99.90;;;;;;5052844;28;20049;-63
2023/08/21 01:22:47;;;;;;;7.32;3.00;;;17.60;99.90;;;;;;5053651;28;20114;-63
2023/08/21 01:25:16;;;;;;;3.95;2.58;;;17.60;99.90;;;;;;5071937;28;20048;-63
2023/08/21 01:27:49;;;;;;;8.48;2.90;;;17.50;99.90;;;;;;5036731;28;20051;-62
2023/08/21 01:30:16;;;;;;;5.80;3.35;;;17.50;99.90;;;;;;5071468;28;20052;-64
2023/08/21 01:32:48;;;;;;;6.88;3.05;;;17.50;99.90;;;;;;5072707;28;20048;-63
2023/08/21 01:35:15;;;;;;;5.70;3.15;;;17.40;99.90;;;;;;5058246;28;20569;-62
2023/08/21 01:37:42;;;;;;;6.88;3.30;;;17.30;99.90;;;;;;5075341;28;20106;-63
2023/08/21 01:40:09;;;;;;;4.72;3.00;;;17.30;99.90;;;;;;5075447;28;20469;-64
2023/08/21 01:43:08;;;;;;;5.65;2.78;;;17.20;99.90;;;;;;5057809;28;20052;-64
2023/08/21 01:45:34;;;;;;;4.63;2.60;;;17.30;99.90;;;;;;5075810;28;20045;-64
2023/08/21 01:48:07;;;;;;;6.63;3.03;;;17.30;99.90;;;;;;5057541;28;20109;-64
2023/08/21 01:50:33;;;;;;;5.95;2.90;;;17.30;99.90;;;;;;5075104;28;20052;-63
2023/08/21 01:53:07;;;;;;;6.93;2.95;;;17.30;99.90;;;;;;5057994;28;20049;-63
2023/08/21 01:55:33;;;;;;;7.15;3.10;;;17.30;99.90;;;;;;5075472;28;20052;-63
2023/08/21 01:58:02;;;;;;;4.13;2.28;;;17.20;99.90;;;;;;5075103;28;20071;-63
2023/08/21 02:00:28;;;;;;;4.85;2.53;;;17.30;99.90;;;;;;5075119;28;20475;-63
2023/08/21 02:02:54;;;;;;;6.93;2.72;;;17.30;99.90;;;;;;5075075;28;20048;-64
2023/08/21 02:05:21;;;;;;;4.03;2.63;;;17.20;99.90;;;;;;5057193;28;20114;-64
2023/08/21 02:07:47;;;;;;;6.32;2.90;;;17.20;99.90;;;;;;5075288;28;20069;-62
2023/08/21 02:10:14;;;;;;;4.97;2.83;;;17.10;99.90;;;;;;5074839;28;20048;-63
2023/08/21 02:12:40;;;;;;;5.65;2.80;;;17.20;99.90;;;;;;5075274;28;20052;-63
2023/08/21 02:15:07;;;;;;;5.70;2.70;;;17.20;99.90;;;;;;5075025;28;20056;-64
2023/08/21 02:17:33;;;;;;;4.07;2.78;;;17.10;99.90;;;;;;5056628;28;20048;-63
2023/08/21 02:20:00;;;;;;;6.10;3.13;;;17.10;99.90;;;;;;5074822;28;20106;-63
2023/08/21 02:22:27;;;;;;;5.63;2.95;;;17.10;99.90;;;;;;5040431;28;20052;-63
2023/08/21 02:24:54;;;;;;;5.47;3.10;;;17.00;99.90;;;;;;5057483;28;20113;-64
2023/08/21 02:27:29;;;;;;;5.22;3.00;;;16.90;99.90;;;;;;5074540;28;20052;-63
2023/08/21 02:29:58;;;;;;;5.18;3.33;;;16.90;99.90;;;;;;5057459;28;20048;-64
2023/08/21 02:32:24;;;;;;;5.88;3.35;;;16.90;99.90;;;;;;5074901;28;20080;-64
2023/08/21 02:34:50;;;;;;;5.13;3.30;;;16.90;99.90;;;;;;5075176;28;20125;-63
2023/08/21 02:37:19;;;;;;;5.53;3.30;;;16.90;99.90;;;;;;5074259;28;20061;-64
2023/08/21 02:39:45;;;;;;;7.00;3.33;;;16.90;99.90;;;;;;5074798;28;20056;-64
2023/08/21 02:42:12;;;;;;;6.18;3.60;;;16.90;99.90;;;;;;5074726;28;20040;-63
2023/08/21 02:44:38;;;;;;;6.18;3.28;;;16.90;99.90;;;;;;5074207;28;20067;-63
2023/08/21 02:47:05;;;;;;;5.57;3.65;;;16.90;99.90;;;;;;5074071;28;20041;-64
2023/08/21 02:49:31;;;;;;;6.63;4.25;;;16.80;99.90;;;;;;5074045;28;20047;-64
2023/08/21 02:51:57;;;;;;;5.00;3.60;;;16.80;99.90;;;;;;5074624;28;20044;-63
2023/08/21 02:54:23;;;;;;;6.10;4.35;;;16.80;99.90;;;;;;5074752;28;20476;-63
2023/08/21 02:56:51;;;;;;;8.13;4.28;;;16.80;99.90;;;;;;5074782;28;20052;-63
2023/08/21 02:59:18;;;;;;;7.00;4.57;;;16.80;99.90;;;;;;5073541;28;20351;-63
2023/08/21 03:01:44;;;;;;;8.18;4.30;;;16.70;99.90;;;;;;5056388;28;20044;-63
2023/08/21 03:04:10;;;;;;;8.00;4.47;;;16.60;99.90;;;;;;5074411;28;20489;-63
2023/08/21 03:06:36;;;;;;;7.50;4.43;;;16.70;99.90;;;;;;5074089;28;20060;-63
2023/08/21 03:09:03;;;;;;;9.13;6.30;;;16.70;99.90;;;;;;5073708;28;20074;-64
2023/08/21 03:11:29;;;;;;;8.90;5.90;;;16.70;99.90;;;;;;5074192;28;20385;-63
2023/08/21 03:13:55;;;;;;;10.27;6.50;;;16.70;99.90;;;;;;5073968;28;20499;-63
2023/08/21 03:16:21;;;;;;;12.02;6.78;;;16.60;99.90;;;;;;5074255;28;20106;-63
2023/08/21 03:18:56;;;;;;;10.48;6.72;;;16.60;99.90;;;;;;5073469;28;20430;-64
2023/08/21 03:21:23;;;;;;;9.30;6.00;;;16.60;99.90;;;;;;5053623;28;20063;-63
2023/08/21 03:23:55;;;;;;;8.60;6.43;;;16.60;99.90;;;;;;5054106;28;20052;-63
2023/08/21 03:26:23;;;;;;;9.23;4.80;;;16.50;99.90;;;;;;5016975;28;20053;-63
2023/08/21 03:28:49;;;;;;;6.97;4.40;;;16.50;99.90;;;;;;5053267;28;20056;-63
2023/08/21 03:31:15;;;;;;;9.60;5.03;;;16.40;99.90;;;;;;5074112;28;20040;-63
2023/08/21 03:33:43;;;;;;;8.85;5.38;;;16.40;99.90;;;;;;5039627;28;20041;-63
2023/08/21 03:36:09;;;;;;;8.10;4.90;;;16.40;99.90;;;;;;5074136;28;20044;-63
2023/08/21 03:38:35;;;;;;;8.00;5.28;;;16.40;99.90;;;;;;5073333;28;20048;-64
2023/08/21 03:41:04;;;;;;;9.48;5.18;;;16.30;99.90;;;;;;5056372;28;20044;-64
2023/08/21 03:43:32;;;;;;;7.53;4.55;;;16.30;99.90;;;;;;5073485;28;20501;-63
2023/08/21 03:45:58;;;;;;;8.27;4.93;;;16.30;99.90;;;;;;5055715;28;20048;-63
2023/08/21 03:48:25;;;;;;;8.15;4.40;;;16.30;99.90;;;;;;5038731;28;20044;-63
2023/08/21 03:50:52;;;;;;;7.38;5.13;;;16.20;99.90;;;;;;5073115;28;20051;-63
2023/08/21 03:53:18;;;;;;;7.55;4.18;;;16.20;99.90;;;;;;5073831;28;20118;-63
2023/08/21 03:55:44;;;;;;;5.40;4.28;;;16.20;99.90;;;;;;5072832;28;20052;-63
2023/08/21 03:58:11;;;;;;;7.05;4.40;;;16.10;99.90;;;;;;5072908;28;20048;-62
2023/08/21 04:00:37;;;;;;;6.43;4.07;;;16.00;99.90;;;;;;5072710;28;20049;-64
2023/08/21 04:03:03;;;;;;;6.47;4.03;;;16.00;99.90;;;;;;5055290;28;20464;-63
2023/08/21 04:05:29;;;;;;;6.88;4.40;;;16.00;99.90;;;;;;5072739;28;20041;-63
2023/08/21 04:07:57;;;;;;;5.70;4.45;;;16.00;99.90;;;;;;5072803;28;20323;-63
2023/08/21 04:10:23;;;;;;;7.40;4.40;;;16.00;99.90;;;;;;5072280;28;20044;-64
2023/08/21 04:12:50;;;;;;;7.47;4.95;;;16.00;99.90;;;;;;5072956;28;20063;-63
2023/08/21 04:15:17;;;;;;;7.60;4.60;;;16.10;99.90;;;;;;5073015;28;20086;-63
2023/08/21 04:17:44;;;;;;;5.45;4.35;;;16.00;99.90;;;;;;5072758;28;20373;-63
2023/08/21 04:20:12;;;;;;;7.43;4.32;;;16.00;99.90;;;;;;5055741;28;20048;-64
2023/08/21 04:22:39;;;;;;;7.78;4.78;;;16.00;99.90;;;;;;5072642;28;20041;-63
2023/08/21 04:25:08;;;;;;;6.53;4.38;;;16.10;99.90;;;;;;5055548;28;20063;-63
2023/08/21 04:27:34;;;;;;;8.88;4.53;;;16.00;99.90;;;;;;5072501;28;20063;-63
2023/08/21 04:30:11;;;;;;;8.15;4.25;;;16.00;99.90;;;;;;5071855;28;20079;-63
2023/08/21 04:32:37;;;;;;;7.47;4.70;;;16.00;99.90;;;;;;5072519;28;20052;-63
2023/08/21 04:35:05;;;;;;;7.90;4.45;;;16.00;99.90;;;;;;5072905;28;20052;-63
2023/08/21 04:37:31;;;;;;;7.20;5.00;;;15.90;99.90;;;;;;5072058;28;20354;-63
2023/08/21 04:39:57;;;;;;;6.22;4.53;;;15.90;99.90;;;;;;5072270;28;20063;-63
2023/08/21 04:42:24;;;;;;;8.00;5.38;;;15.80;99.90;;;;;;5072857;28;20040;-63
2023/08/21 04:44:50;;;;;;;6.53;5.03;;;15.90;99.90;;;;;;5072854;28;20353;-64
2023/08/21 04:47:22;;;;;;;8.27;5.35;;;15.80;99.90;;;;;;5072154;28;20461;-63
2023/08/21 04:49:50;;;;;;;6.57;5.63;;;15.80;99.90;;;;;;5054786;28;20041;-63
2023/08/21 04:52:16;;;;;;;8.40;5.13;;;15.90;99.90;;;;;;5072533;28;20052;-63
2023/08/21 04:54:42;;;;;;;10.20;5.82;;;15.90;99.90;;;;;;5055223;28;20131;-63
2023/08/21 04:57:10;;;;;;;8.45;5.40;;;15.90;99.90;;;;;;5071863;28;20056;-62
2023/08/21 04:59:37;;;;;;;7.88;4.90;;;15.90;99.90;;;;;;5072294;28;20463;-63
2023/08/21 05:02:07;;;;;;;8.18;4.75;;;16.00;99.90;;;;;;5055376;28;20051;-63
2023/08/21 05:04:37;;;;;;;8.77;5.22;;;16.00;99.90;;;;;;5072052;28;20071;-63
2023/08/21 05:07:04;;;;;;;9.57;5.35;;;16.00;99.90;;;;;;5072013;28;20050;-63
2023/08/21 05:09:31;;;;;;;7.93;5.22;;;16.10;99.90;;;;;;5072529;28;20052;-63
2023/08/21 05:11:57;;;;;;;7.50;5.32;;;16.10;99.90;;;;;;5054661;28;20498;-63
2023/08/21 05:14:23;;;;;;;7.97;5.15;;;16.10;99.90;;;;;;5072331;28;20063;-63
2023/08/21 05:16:50;;;;;;;7.10;5.18;;;16.20;99.90;;;;;;5055160;28;20056;-63
2023/08/21 05:19:17;;;;;;;10.80;5.18;;;16.30;99.90;;;;;;5072892;28;20483;-63
2023/08/21 05:21:44;;;;;;;11.00;5.55;;;16.30;99.90;;;;;;5072583;28;20061;-62
2023/08/21 05:24:10;;;;;;;9.20;6.05;;;16.40;99.90;;;;;;5055106;28;20087;-63
2023/08/21 05:26:38;;;;;;;8.18;5.35;;;16.60;99.90;;;;;;5054736;28;20076;-63
2023/08/21 05:29:04;;;;;;;10.13;5.13;;;16.90;99.90;;;;;;5054619;28;20132;-63
2023/08/21 05:31:30;;;;;;;8.05;5.50;;;17.50;99.90;;;;;;5054547;28;20044;-63
2023/08/21 05:33:57;;;;;;;8.38;5.10;;;17.90;99.90;;;;;;5072751;28;20462;-62
2023/08/21 05:36:23;;;;;;;7.07;4.80;;;18.20;99.90;;;;;;5072317;28;20044;-62
2023/08/21 05:38:51;;;;;;;9.02;4.97;;;18.30;99.90;;;;;;5071285;28;20059;-62
2023/08/21 05:41:17;;;;;;;10.13;5.35;;;18.60;99.90;;;;;;5053831;28;20053;-62
2023/08/21 05:43:49;;;;;;;9.30;4.57;;;19.10;99.90;;;;;;5071301;28;20040;-62
2023/08/21 05:46:16;;;;;;;;;;;19.70;99.90;;;;;;5054430;28;20067;-62
2023/08/21 05:48:42;;;;;;;7.47;4.47;;;20.40;99.90;;;;;;5070751;28;20321;-62
2023/08/21 05:51:09;;;;;;;7.72;4.30;;;21.10;99.90;;;;;;5070984;28;20055;-62
2023/08/21 05:53:35;;;;;;;8.35;4.15;;;21.70;99.90;;;;;;5052976;28;20052;-63
2023/08/21 05:56:01;;;;;;;6.05;3.85;;;22.20;99.90;;;;;;5053343;28;20048;-63
2023/08/21 05:58:31;;;;;;;9.63;4.22;;;22.40;99.90;;;;;;5070981;28;20385;-62
2023/08/21 06:00:57;;;;;;;7.15;3.60;;;22.90;99.90;;;;;;5053142;28;20052;-62
2023/08/21 06:03:24;;;;;;;5.82;3.47;;;22.80;99.90;;;;;;5071052;28;20067;-62
2023/08/21 06:05:50;;;;;;;6.47;3.72;;;23.00;99.90;;;;;;5071212;28;20048;-62
2023/08/21 06:08:18;;;;;;;8.43;4.40;;;23.20;99.90;;;;;;5036555;28;20064;-62
2023/08/21 06:10:44;;;;;;;5.45;3.40;;;23.40;99.90;;;;;;5053304;28;20055;-62
2023/08/21 06:13:10;;;;;;;9.23;4.10;;;23.70;99.90;;;;;;5052973;28;20055;-62
2023/08/21 06:15:37;;;;;;;5.85;3.50;;;23.90;99.90;;;;;;5071376;28;20063;-62
2023/08/21 06:18:04;;;;;;;8.65;3.75;;;24.10;99.90;;;;;;5070907;28;20102;-62
2023/08/21 06:20:30;;;;;;;10.55;3.80;;;24.30;99.90;;;;;;5074197;28;20049;-63
2023/08/21 06:22:56;;;;;;;7.82;3.53;;;24.60;99.90;;;;;;5075168;28;20044;-63
2023/08/21 06:25:22;;;;;;;7.60;3.10;;;24.70;99.90;;;;;;5056446;28;20131;-62
2023/08/21 06:27:49;;;;;;;6.85;3.63;;;25.00;99.90;;;;;;5056754;28;20041;-63
2023/08/21 06:30:16;;;;;;;8.30;3.80;;;25.20;99.90;;;;;;5074465;28;20051;-63
2023/08/21 06:32:43;;;;;;;6.57;3.20;;;25.40;99.90;;;;;;5057306;28;20113;-63
2023/08/21 06:35:11;;;;;;;7.03;3.20;;;25.60;99.90;;;;;;5056910;28;20139;-63
2023/08/21 06:37:37;;;;;;;6.85;3.15;;;25.90;99.90;;;;;;5074185;28;20067;-62
2023/08/21 06:40:04;;;;;;;6.28;2.70;;;26.00;99.90;;;;;;5056970;28;20044;-63
2023/08/21 06:42:30;;;;;;;7.97;2.47;;;25.70;99.90;;;;;;5074913;28;20048;-63
2023/08/21 06:44:56;;;;;;;7.53;3.25;;;25.40;99.90;;;;;;5056719;28;20048;-62
2023/08/21 06:47:23;;;;;;;5.15;2.90;;;25.40;99.90;;;;;;5074142;28;20178;-63
2023/08/21 06:49:49;;;;;;;7.03;2.88;;;25.60;99.90;;;;;;5074293;28;20102;-63
2023/08/21 06:52:15;;;;;;;7.32;3.00;;;25.50;99.90;;;;;;5074828;28;20471;-62
2023/08/21 06:54:41;;;;;;;7.10;2.80;;;25.30;99.90;;;;;;5074624;28;20483;-62
2023/08/21 06:57:07;;;;;;;7.20;2.70;;;25.30;99.90;;;;;;5073929;28;20044;-63
2023/08/21 06:59:35;;;;;;;6.40;2.67;;;25.40;99.90;;;;;;5074048;28;20040;-63
2023/08/21 07:02:02;;;;;;;5.85;2.58;;;25.30;99.90;;;;;;5040178;28;20464;-62
2023/08/21 07:04:29;;;;;;;6.40;2.85;;;25.20;99.90;;;;;;5057033;28;20051;-63
2023/08/21 07:06:55;;;;;;;5.78;3.15;;;25.30;99.90;;;;;;5074035;28;20040;-62
2023/08/21 07:09:24;;;;;;;5.18;2.92;;;24.90;99.90;;;;;;5055694;28;20048;-63
2023/08/21 07:11:51;;;;;;;6.22;2.92;;;24.50;99.90;;;;;;5057016;28;20472;-63
2023/08/21 07:14:18;;;;;;;7.03;3.50;;;24.60;99.90;;;;;;5056313;28;20067;-62
2023/08/21 07:16:44;;;;;;;8.63;3.45;;;24.70;99.90;;;;;;5073531;28;20098;-62
2023/08/21 07:19:12;;;;;;;6.32;3.25;;;24.80;99.90;;;;;;5073182;28;20052;-62
2023/08/21 07:21:38;;;;;;;9.90;3.47;;;25.20;99.90;;;;;;5074016;28;20052;-62
2023/08/21 07:24:05;;;;;;;4.40;2.55;;;25.30;99.90;;;;;;5073643;28;20373;-62
2023/08/21 07:26:31;;;;;;;4.45;2.78;;;25.40;99.90;;;;;;5056172;28;20084;-62
2023/08/21 07:29:30;;;;;;;7.85;2.50;;;25.10;99.90;;;;;;5038425;28;20049;-63
2023/08/21 07:31:57;;;;;;;6.30;2.10;;;24.90;99.90;;;;;;5073200;28;20048;-63
2023/08/21 07:34:26;;;;;;;6.85;2.40;;;24.70;99.90;;;;;;5074066;28;20049;-63
2023/08/21 07:36:52;;;;;;;5.30;1.90;;;24.70;99.90;;;;;;5073452;28;20158;-62
2023/08/21 07:39:18;;;;;;;5.18;1.95;;;24.80;99.90;;;;;;5072909;28;20059;-63
2023/08/21 07:41:45;;;;;;;6.15;1.77;;;24.60;99.90;;;;;;5073806;28;20140;-62
2023/08/21 07:44:11;;;;;;;5.22;2.03;;;24.60;99.90;;;;;;5073227;28;20468;-62
2023/08/21 07:46:37;;;;;;;4.97;1.58;;;24.50;99.90;;;;;;5072983;28;20044;-62
2023/08/21 07:49:05;;;;;;;5.45;2.08;;;24.60;99.90;;;;;;5055133;28;20159;-63
2023/08/21 07:51:31;;;;;;;3.88;1.95;;;24.50;99.90;;;;;;5073319;28;20056;-62
2023/08/21 07:53:58;;;;;;;4.30;1.60;;;24.50;99.90;;;;;;5055915;28;20048;-63
2023/08/21 07:56:25;;;;;;;3.83;1.65;;;24.60;99.90;;;;;;5055768;28;20468;-62
2023/08/21 07:58:51;;;;;;;7.55;2.10;;;24.60;99.90;;;;;;5072850;28;20349;-63
2023/08/21 08:01:17;;;;;;;5.20;2.25;;;24.40;99.90;;;;;;5055076;28;20314;-63
2023/08/21 08:03:43;;;;;;;5.63;2.33;;;24.40;99.90;;;;;;5073089;28;20052;-62
2023/08/21 08:06:10;;;;;;;5.28;2.35;;;24.40;99.90;;;;;;5073545;28;20052;-62
2023/08/21 08:08:36;;;;;;;6.60;1.90;;;24.50;99.90;;;;;;5072717;28;20457;-62
2023/08/21 08:11:03;;;;;;;5.20;2.20;;;24.60;99.90;;;;;;5054989;28;20123;-62
2023/08/21 08:13:30;;;;;;;5.43;2.22;;;24.80;99.90;;;;;;5038687;28;20052;-63
2023/08/21 08:15:56;;;;;;;6.10;1.92;;;25.00;99.90;;;;;;5055506;28;20048;-62
2023/08/21 08:18:23;;;;;;;4.80;1.83;;;25.10;99.90;;;;;;5054735;28;20142;-63
2023/08/21 08:20:50;;;;;;;4.25;1.70;;;25.20;99.90;;;;;;5072474;28;20059;-63
2023/08/21 08:23:17;;;;;;;4.88;2.10;;;25.20;99.90;;;;;;5055257;28;20151;-63
2023/08/21 08:25:43;;;;;;;7.82;2.70;;;25.10;99.90;;;;;;5073040;28;20056;-63
2023/08/21 08:28:10;;;;;;;5.53;2.28;;;25.20;99.90;;;;;;5054815;28;20514;-62
2023/08/21 08:30:36;;;;;;;5.35;2.58;;;25.10;99.90;;;;;;5072193;28;20114;-64
2023/08/21 08:33:11;;;;;;;5.45;2.08;;;25.20;99.90;;;;;;5055452;28;20053;-63
2023/08/21 08:36:10;;;;;;;4.28;2.35;;;25.30;99.90;;;;;;5072524;28;20052;-62
2023/08/21 08:38:37;;;;;;;6.25;2.13;;;25.30;99.90;;;;;;5047400;28;20397;-63
2023/08/21 08:41:11;;;;;;;5.15;2.40;;;25.00;99.90;;;;;;5041443;28;20465;-63
2023/08/21 08:43:40;;;;;;;3.78;1.92;;;25.00;99.90;;;;;;5072433;28;20075;-63
2023/08/21 08:46:08;;;;;;;5.53;2.80;;;24.80;99.90;;;;;;5072135;28;20048;-63
2023/08/21 08:48:35;;;;;;;7.22;3.00;;;24.60;99.90;;;;;;5072064;28;20070;-62
2023/08/21 08:51:03;;;;;;;5.43;2.50;;;24.60;99.90;;;;;;5066010;28;20480;-63
2023/08/21 08:53:30;;;;;;;5.75;3.08;;;24.50;99.90;;;;;;5072211;28;20437;-62
2023/08/21 08:55:58;;;;;;;6.88;3.10;;;24.80;99.90;;;;;;5072175;28;20338;-63
2023/08/21 08:58:24;;;;;;;6.55;2.45;;;24.70;99.90;;;;;;5071811;28;20049;-62
2023/08/21 09:00:51;;;;;;;6.60;2.15;;;24.80;99.90;;;;;;5062040;28;20064;-62
2023/08/21 09:03:17;;;;;;;3.72;1.70;;;25.10;99.90;;;;;;5071871;28;20044;-63
2023/08/21 09:05:44;;;;;;;5.70;2.13;;;25.20;99.90;;;;;;5072186;28;20055;-63
2023/08/21 09:08:14;;;;;;;7.00;2.38;;;25.00;99.90;;;;;;5071476;28;20400;-63
2023/08/21 09:10:42;;;;;;;4.13;1.30;;;24.80;99.90;;;;;;5061181;28;20060;-63
2023/08/21 09:13:13;;;;;;;5.90;2.30;;;25.20;99.90;;;;;;5038065;28;20049;-63
2023/08/21 09:15:46;;;;;;;6.28;2.50;;;25.30;99.90;;;;;;5054830;28;20056;-62
2023/08/21 09:18:14;;;;;;;5.35;2.40;;;25.40;99.90;;;;;;5021427;28;20362;-62
2023/08/21 09:20:42;;;;;;;8.00;2.70;;;25.50;99.90;;;;;;5046245;28;20058;-62
2023/08/21 09:23:14;;;;;;;5.75;2.75;;;25.40;99.90;;;;;;5071635;28;20503;-63
2023/08/21 09:25:40;;;;;;;7.95;2.55;;;25.60;99.90;;;;;;5071995;28;20044;-62
2023/08/21 09:28:08;;;;;;;5.55;2.67;;;25.50;99.90;;;;;;5070241;28;20121;-63
2023/08/21 09:30:52;;;;;;;8.48;2.80;;;25.50;99.90;;;;;;5062265;28;20060;-62
2023/08/21 09:33:22;;;;;;;6.63;3.10;;;25.50;99.90;;;;;;5072191;28;20052;-63
2023/08/21 09:35:52;;;;;;;5.05;2.63;;;25.30;99.90;;;;;;5037672;28;20126;-62
2023/08/21 09:38:21;;;;;;;6.82;3.25;;;25.20;99.90;;;;;;5026339;28;20063;-62
2023/08/21 09:40:52;;;;;;;5.45;2.38;;;25.30;99.90;;;;;;5052223;28;20045;-63
2023/08/21 09:43:21;;;;;;;6.07;2.75;;;25.40;99.90;;;;;;5034321;28;20049;-63
2023/08/21 09:45:52;;;;;;;5.40;1.80;;;25.70;99.90;;;;;;5051789;28;20445;-62
2023/08/21 09:48:23;;;;;;;3.85;1.73;;;25.40;99.90;;;;;;5051316;28;20045;-62
2023/08/21 09:50:51;;;;;;;4.63;1.63;;;25.30;99.90;;;;;;5064923;28;20060;-62
2023/08/21 09:53:22;;;;;;;7.22;2.25;;;25.20;99.90;;;;;;5038087;28;20048;-62
2023/08/21 09:55:54;;;;;;;8.27;2.78;;;25.30;99.90;;;;;;5075905;28;20415;-63
2023/08/21 09:58:20;;;;;;;6.50;2.40;;;25.30;99.90;;;;;;5075390;28;20056;-63
2023/08/21 10:00:49;;;;;;;6.93;2.60;;;25.20;99.90;;;;;;5028537;28;20087;-64
2023/08/21 10:03:20;;;;;;;5.68;1.98;;;25.20;99.90;;;;;;5055911;28;20056;-63
2023/08/21 10:05:47;;;;;;;4.68;1.70;;;25.20;99.90;;;;;;5055641;28;20106;-63
2023/08/21 10:08:16;;;;;;;6.75;1.98;;;25.40;99.90;;;;;;5055196;28;20078;-63
2023/08/21 10:10:43;;;;;;;3.85;1.90;;;25.30;99.90;;;;;;5049710;28;20049;-63
2023/08/21 10:13:12;;;;;;;5.38;2.30;;;25.30;99.90;;;;;;5058362;28;20052;-63
2023/08/21 10:15:40;;;;;;;5.97;2.00;;;25.30;99.90;;;;;;5075443;28;20068;-63
2023/08/21 10:18:34;;;;;;;6.07;2.00;;;25.30;99.90;;;;;;5074782;28;20048;-64
2023/08/21 10:21:25;;;;;;;5.95;2.25;;;25.40;99.90;;;;;;5038719;28;20056;-64
2023/08/21 10:23:55;;;;;;;4.53;2.35;;;25.50;99.90;;;;;;5021599;28;20048;-63
2023/08/21 10:26:22;;;;;;;4.85;1.90;;;25.80;99.90;;;;;;5037113;28;20087;-63
2023/08/21 10:29:02;;;;;;;4.07;1.60;;;26.00;99.90;;;;;;5037220;28;20056;-63
2023/08/21 10:31:36;;;;;;;4.95;1.85;;;25.80;99.90;;;;;;5073439;28;20052;-63
2023/08/21 10:34:05;;;;;;;5.70;1.80;;;26.00;99.90;;;;;;5075008;28;20045;-63
2023/08/21 10:36:37;;;;;;;5.70;1.80;;;26.10;99.90;;;;;;5074391;28;20059;-62
2023/08/21 10:39:12;;;;;;;5.18;1.70;;;26.10;99.90;;;;;;5074661;28;20495;-63
2023/08/21 10:41:38;;;;;;;4.72;1.50;;;26.10;99.90;;;;;;5073723;28;20093;-62
2023/08/21 10:44:06;;;;;;;3.85;1.50;;;26.30;99.90;;;;;;5074543;28;20059;-63
2023/08/21 10:46:52;;;;;;;5.45;1.75;;;26.60;99.90;;;;;;5039878;28;20057;-62
2023/08/21 10:49:18;;;;;;;4.32;1.52;;;26.60;99.90;;;;;;5073456;28;20044;-63
2023/08/21 10:51:45;;;;;;;5.80;1.83;;;26.70;99.90;;;;;;5037036;28;20064;-62
2023/08/21 10:54:13;;;;;;;6.47;1.90;;;26.80;99.90;;;;;;5037378;28;20049;-62
2023/08/21 10:56:39;;;;;;;6.25;1.70;;;26.70;99.90;;;;;;5036617;28;20107;-62
2023/08/21 10:59:07;;;;;;;4.45;1.70;;;26.90;99.90;;;;;;5054493;28;20454;-62
2023/08/21 11:01:45;;;;;;;6.20;1.80;;;26.90;99.90;;;;;;5036244;28;20064;-63
2023/08/21 11:04:14;;;;;;;5.32;2.00;;;26.90;99.90;;;;;;5019762;28;20111;-62
2023/08/21 11:06:40;;;;;;;8.18;2.65;;;26.70;99.90;;;;;;5036301;28;20419;-63
2023/08/21 11:09:13;;;;;;;6.05;2.42;;;26.70;99.90;;;;;;5054624;28;20045;-63
2023/08/21 11:11:40;;;;;;;3.85;1.80;;;26.80;99.90;;;;;;5054319;28;20045;-63
2023/08/21 11:14:06;;;;;;;5.53;1.92;;;26.90;99.90;;;;;;5054384;28;20110;-63
2023/08/21 11:17:05;;;;;;;7.70;2.15;;;26.70;99.90;;;;;;5053842;28;20061;-63
2023/08/21 11:19:32;;;;;;;9.20;2.17;;;26.70;99.90;;;;;;5053928;28;20068;-63
2023/08/21 11:22:03;;;;;;;9.50;2.17;;;26.40;99.90;;;;;;5036799;28;20053;-63
2023/08/21 11:24:48;;;;;;;6.88;1.95;;;26.40;99.90;;;;;;5036722;28;20072;-63
2023/08/21 11:27:16;;;;;;;5.32;1.65;;;26.20;99.90;;;;;;5036372;28;20053;-63
2023/08/21 11:29:49;;;;;;;4.25;1.77;;;26.10;99.90;;;;;;5054302;28;20052;-63
2023/08/21 11:32:19;;;;;;;8.20;2.38;;;26.20;99.90;;;;;;5036483;28;20056;-63
2023/08/21 11:34:57;;;;;;;5.72;2.58;;;26.20;99.90;;;;;;5054475;28;20110;-62
2023/08/21 11:37:28;;;;;;;4.20;1.70;;;26.30;99.90;;;;;;5053100;28;20068;-63
2023/08/21 11:39:56;;;;;;;4.05;1.80;;;26.30;99.90;;;;;;5035714;28;20052;-63
2023/08/21 11:42:29;;;;;;;5.07;2.20;;;26.30;99.90;;;;;;5035965;28;20048;-63
2023/08/21 11:44:56;;;;;;;5.10;1.88;;;26.30;99.90;;;;;;5053622;28;20045;-63
2023/08/21 11:47:23;;;;;;;5.78;2.20;;;26.00;99.90;;;;;;5053026;28;20045;-63
2023/08/21 11:49:50;;;;;;;6.10;1.60;;;25.90;99.90;;;;;;5035820;28;20049;-63
2023/08/21 11:52:20;;;;;;;4.93;1.83;;;25.90;99.90;;;;;;5020251;28;20045;-63
2023/08/21 11:54:49;;;;;;;5.40;1.70;;;25.80;99.90;;;;;;5053825;28;20045;-63
2023/08/21 11:57:16;;;;;;;6.95;1.65;;;25.80;99.90;;;;;;5053091;28;20466;-63
2023/08/21 11:59:42;;;;;;;5.50;1.50;;;25.90;99.90;;;;;;5035987;28;20052;-63
2023/08/21 12:02:26;;;;;;;4.78;1.40;;;25.90;99.70;;;;;;5053311;28;20048;-63
2023/08/21 12:05:15;;;;;;;4.50;1.60;;;26.10;97.80;;;;;;5053420;28;20045;-62
2023/08/21 12:07:42;;;;;;;3.78;1.50;;;26.10;99.00;;;;;;5035525;28;20045;-62
2023/08/21 12:10:09;;;;;;;3.88;1.50;;;26.20;99.00;;;;;;5035265;28;20044;-62
2023/08/21 12:12:36;;;;;;;6.95;1.50;;;26.30;99.10;;;;;;5053263;28;20103;-63
2023/08/21 12:15:03;;;;;;;3.53;1.65;;;26.30;98.20;;;;;;5052833;28;20053;-63
2023/08/21 12:17:29;;;;;;;5.50;1.95;;;26.30;98.80;;;;;;5052250;28;20438;-63
2023/08/21 12:19:57;;;;;;;4.55;1.30;;;26.40;98.80;;;;;;5035024;28;20049;-63
2023/08/21 12:22:23;;;;;;;6.20;2.13;;;26.50;98.90;;;;;;5053360;28;20434;-63
2023/08/21 12:24:49;;;;;;;3.60;2.00;;;26.60;98.90;;;;;;5053477;28;20049;-62
2023/08/21 12:27:16;;;;;;;4.30;1.70;;;26.70;98.60;;;;;;5052782;28;20049;-62
2023/08/21 12:29:42;;;;;;;5.53;2.03;;;26.70;98.70;;;;;;5034953;28;20438;-63
2023/08/21 12:32:08;;;;;;;4.18;1.65;;;26.60;98.70;;;;;;5052435;28;20041;-63
2023/08/21 12:34:34;;;;;;;4.60;2.00;;;26.50;98.30;;;;;;5035763;28;20091;-63
2023/08/21 12:37:01;;;;;;;4.80;1.85;;;26.70;98.70;;;;;;5034642;28;20444;-63
2023/08/21 12:39:27;;;;;;;5.20;1.90;;;26.70;99.10;;;;;;5052165;28;20114;-63
2023/08/21 12:41:54;;;;;;;4.55;1.70;;;26.80;98.90;;;;;;5034808;28;20049;-63
2023/08/21 12:44:20;;;;;;;4.72;1.80;;;26.80;98.10;;;;;;5052589;28;20277;-63
2023/08/21 12:46:47;;;;;;;5.90;2.25;;;26.60;98.30;;;;;;5034791;28;20041;-62
2023/08/21 12:49:15;;;;;;;4.95;2.05;;;26.80;98.60;;;;;;5052451;28;20083;-63
2023/08/21 12:51:42;;;;;;;5.35;2.00;;;26.90;98.90;;;;;;5034268;28;20045;-63
2023/08/21 12:54:08;;;;;;;5.85;2.15;;;27.00;99.10;;;;;;5018624;28;20053;-63